• Join FlightAware (Why Join?)
  • Login
  • US Flag 
08:46AM EDT


 

Airport Tracker/Info


-or-


 

Live Flight TrackerFlight Track Log ✈ AWE1940 ✈ 12-Jun-2013 ✈ KCLT - KALB

Flight Track Log - Related Links

Times and Time Zones

All times are in EDT time to prevent confusion due to time zone crossing. See the AWE1940 flight status page for this flight to view local times or setup timezone preferences in your user account.

Time Position Orientation Groundspeed Altitude Reporting Facility
EDT Latitude Longitude Course Direction KTS MPH feet Rate Location/Type
10:21PM 35.1908 -80.9356 72° East 162 186 1,700  Level Atlanta Center
10:22PM 35.1253 -80.9025 158° South 240 276 3,700 1,680 Climbing Atlanta Center
10:23PM 35.0919 -80.8225 117° Southeast 289 333 5,600 2,400 Climbing Atlanta Center
10:24PM 35.1437 -80.6042 29° Northeast  Level FlightAware Approximate
10:24PM 35.1019 -80.7258 83° East 290 334 8,500  Level Atlanta Center
10:25PM 35.2502 -80.5309 30° Northeast  Level FlightAware Approximate
10:25PM 35.1308 -80.6358 69° East 287 330 10,800  Level Atlanta Center
10:26PM 35.3379 -80.4493 72° East  Level FlightAware Approximate
10:26PM 35.2083 -80.5792 31° Northeast 329 379 12,600  Level Atlanta Center
10:28PM 35.3283 -80.4725 36° Northeast 351 404 16,300 2,520 Climbing Washington Center
10:29PM 35.3686 -80.3528 68° East 351 404 19,200 2,400 Climbing Washington Center
10:30PM 35.4114 -80.2150 69° East 371 427 21,300 1,800 Climbing Washington Center
10:31PM 35.4481 -80.0794 72° East 401 461 22,900 780 Climbing Washington Center
10:32PM 35.4842 -79.9464 72° East 409 471 22,900 660 Level Washington Center
10:34PM 35.5522 -79.6717 73° East 415 478 24,900 960 Climbing Washington Center
10:35PM 35.5906 -79.5281 72° East 432 497 25,900 1,140 Climbing Washington Center
10:36PM 35.6347 -79.3847 69° East 446 513 27,200 1,560 Climbing Washington Center
10:37PM 35.6914 -79.2414 64° Northeast 451 519 29,000 1,800 Climbing Washington Center
10:38PM 35.7500 -79.0983 63° Northeast 457 526 30,900 900 Climbing Washington Center
10:39PM 35.8083 -78.9600 62° Northeast 457 526 30,900  Level Washington Center
10:40PM 35.8644 -78.8164 64° Northeast 457 526 30,900  Level Washington Center
10:41PM 35.9264 -78.6828 60° Northeast 452 520 30,900  Level Washington Center
10:42PM 35.9922 -78.5494 59° Northeast 452 520 30,900  Level Washington Center
10:43PM 36.0561 -78.4156 59° Northeast 452 520 30,900  Level Washington Center
10:44PM 36.1108 -78.2967 60° Northeast 447 514 30,900  Level Washington Center
10:45PM 36.1744 -78.1650 59° Northeast 447 514 30,900  Level Washington Center
10:46PM 36.2397 -78.0308 59° Northeast 447 514 30,900  Level Washington Center
10:47PM 36.3008 -77.8961 61° Northeast 447 514 30,900  Level Washington Center
10:48PM 36.3658 -77.7639 59° Northeast 447 514 30,900  Level Washington Center
10:49PM 36.4333 -77.6133 61° Northeast 447 514 30,900  Level Washington Center
10:50PM 36.4981 -77.4806 59° Northeast 447 514 30,900  Level Washington Center
10:51PM 36.5606 -77.3400 61° Northeast 447 514 30,900  Level Washington Center
10:52PM 36.6231 -77.2017 61° Northeast 447 514 30,900  Level Washington Center
10:53PM 36.6875 -77.0656 59° Northeast 453 521 30,900  Level Washington Center
10:54PM 36.7700 -76.9636 45° Northeast 451 519 30,900  Level Washington Center
10:55PM 36.8669 -76.8744 36° Northeast 438 504 30,900  Level Washington Center
10:56PM 36.9681 -76.7800 37° Northeast 443 510 30,900  Level Washington Center
10:57PM 37.0689 -76.6903 35° Northeast 443 510 30,900  Level Washington Center
10:58PM 37.1700 -76.6006 35° Northeast 443 510 30,900  Level Washington Center
10:59PM 37.2686 -76.5106 36° Northeast 438 504 30,900  Level Washington Center
11:00PM 37.3675 -76.4175 37° Northeast 438 504 30,900  Level Washington Center
11:01PM 37.4744 -76.3192 36° Northeast 433 498 30,900  Level Washington Center
11:02PM 37.5708 -76.2339 35° Northeast 428 493 30,900 -60 Level Washington Center
11:03PM 37.6714 -76.1481 34° Northeast 433 498 30,800 -60 Descending Washington Center
11:04PM 37.7697 -76.0567 36° Northeast 433 498 30,800  Level Washington Center
11:05PM 37.8661 -75.9575 39° Northeast 433 498 30,900  Climbing Washington Center
11:06PM 37.9642 -75.8658 36° Northeast 438 504 30,900  Level Washington Center
11:07PM 38.0644 -75.7736 36° Northeast 438 504 30,900  Level Washington Center
11:08PM 38.1647 -75.6814 36° Northeast 438 504 30,900  Level Washington Center
11:09PM 38.2650 -75.5839 37° Northeast 438 504 30,900 -60 Level Washington Center
11:10PM 38.3544 -75.5122 32° Northeast 437 503 30,800 -60 Descending Washington Center
11:11PM 38.4650 -75.4564 22° Northeast 415 478 30,800 -360 Level Washington Center
11:12PM 38.5794 -75.4139 16° North 415 478 30,100 -840 Descending Washington Center
11:13PM 38.6942 -75.3683 17° North 425 489 29,200 -720 Descending Washington Center
11:14PM 38.8108 -75.3172 19° North 431 496 28,700 -780 Descending Washington Center
11:15PM 38.9253 -75.2633 20° North 431 496 27,700 -1,020 Descending Washington Center
11:16PM 39.0356 -75.1853 29° Northeast 436 502 26,700 -1,020 Descending Washington Center
11:17PM 39.1417 -75.1019 31° Northeast 441 507 25,700 -960 Descending Washington Center
11:18PM 39.2497 -75.0289 28° Northeast 441 507 24,800 -480 Descending Washington Center
11:19PM 39.3556 -74.9500 30° Northeast 441 507 24,800  Level Washington Center
11:20PM 39.4614 -74.8711 30° Northeast 441 507 24,800  Level Washington Center
11:22PM 39.7217 -74.6789 30° Northeast 437 503 24,900  Climbing New York Center
11:23PM 39.8178 -74.6058 30° Northeast 437 503 24,900  Level New York Center
11:24PM 39.9331 -74.5203 30° Northeast 437 503 24,900 -60 Level New York Center
11:25PM 40.0419 -74.4367 30° Northeast 437 503 24,800 -60 Descending New York Center
11:26PM 40.1489 -74.3553 30° Northeast 437 503 24,800  Level New York Center
11:27PM 40.2511 -74.2764 30° Northeast 437 503 24,800 -120 Level New York Center
11:28PM 40.3578 -74.1975 29° Northeast 437 503 24,600 -300 Descending New York Center
11:31PM 40.6056 -74.0119 30° Northeast 427 491 23,800 -240 Descending Boston Center
11:32PM 40.7086 -73.9294 31° Northeast 427 491 23,800  Level Boston Center
11:33PM 40.8100 -73.8414 33° Northeast 427 491 23,800 -60 Level Boston Center
11:34PM 40.9031 -73.7281 43° Northeast 434 499 23,700 -540 Descending Boston Center
11:35PM 40.9811 -73.6278 44° Northeast 434 499 22,800 -480 Descending Boston Center
11:36PM 41.1061 -73.6247 North 394 453 22,800  Level Boston Center
11:37PM 41.2186 -73.6350 356° North 391 450 22,800  Level Boston Center
11:38PM 41.3289 -73.6481 355° North 391 450 22,800 -480 Level Boston Center
11:39PM 41.4372 -73.6583 356° North 396 456 21,900 -960 Descending Boston Center
11:40PM 41.5392 -73.6714 355° North 378 435 20,900 -1,020 Descending Boston Center
11:41PM 41.6433 -73.6819 356° North 371 427 19,900 -1,020 Descending Boston Center
11:42PM 41.7475 -73.6922 356° North 371 427 18,900 -1,380 Descending Boston Center
11:43PM 41.8472 -73.7053 354° North 364 419 17,200 -2,220 Descending Boston Center
11:44PM 41.9264 -73.7153 355° North 357 411 15,000 -2,700 Descending Boston Center
11:45PM 42.0283 -73.7258 356° North 339 390 12,200 -1,980 Descending Boston Center
11:46PM 42.1200 -73.7306 358° North 327 376 10,900 -660 Descending Boston Center
11:47PM 42.1992 -73.7433 353° North 279 321 10,900 -780 Level Boston Center
11:48PM 42.2867 -73.7506 357° North 280 322 9,300 -1,560 Descending Boston Center
11:49PM 42.3572 -73.7633 352° North 273 314 7,800 -1,860 Descending Boston Center
11:50PM 42.4364 -73.7764 353° North 265 305 5,600 -1,800 Descending Boston Center
11:51PM 42.5092 -73.7806 358° North 269 310 4,100 -1,440 Descending Boston Center
11:52PM 42.5778 -73.7906 354° North 258 297 2,800 -900 Descending Boston Center
11:53PM 42.6361 -73.8003 353° North 236 272 2,400 -420 Descending Boston Center